Time;durP1;ratioP1;P1;durP2;ratioP2;P2;SDS_P1;SDS_P2;PMS_P1;PMS_P2;Temp;Humidity;BMP_temperature;BMP_pressure;BME280_temperature;BME280_humidity;BME280_pressure;Samples;Min_cycle;Max_cycle;Signal;HPM_P1;HPM_P2
2021/04/16 00:00:20;;;;;;;1.95;0.90;;;;;;;4.32;55.15;102129.31;115550;1212;62549;-76
2021/04/16 00:02:46;;;;;;;4.07;0.83;;;;;;;4.31;55.54;102124.98;115544;1212;62420;-76
2021/04/16 00:05:14;;;;;;;1.70;0.80;;;;;;;4.30;55.80;102128.57;115545;1212;62324;-76
2021/04/16 00:07:41;;;;;;;1.87;1.10;;;;;;;4.30;55.26;102112.81;115493;1212;63365;-76
2021/04/16 00:10:11;;;;;;;2.27;1.10;;;;;;;4.30;55.53;102110.18;115496;1212;62673;-76
2021/04/16 00:12:38;;;;;;;1.40;0.73;;;;;;;4.31;55.13;102114.48;115513;1212;62633;-76
2021/04/16 00:15:13;;;;;;;1.75;0.95;;;;;;;4.29;55.09;102103.23;115509;1212;62292;-76
2021/04/16 00:17:39;;;;;;;1.93;0.90;;;;;;;4.28;56.06;102098.93;115497;1212;62550;-76
2021/04/16 00:20:11;;;;;;;4.27;1.27;;;;;;;4.27;56.36;102094.60;115768;1212;63352;-77
2021/04/16 00:22:37;;;;;;;1.35;0.95;;;;;;;4.24;56.30;102100.91;115519;1212;63322;-77
2021/04/16 00:25:06;;;;;;;2.00;1.20;;;;;;;4.22;56.01;102097.53;115707;1212;62322;-77
2021/04/16 00:27:33;;;;;;;1.70;0.90;;;;;;;4.19;57.04;102091.66;115551;1212;62544;-77
2021/04/16 00:30:00;;;;;;;2.20;1.15;;;;;;;4.16;57.49;102087.42;115552;1212;62495;-77
2021/04/16 00:32:26;;;;;;;1.90;0.90;;;;;;;4.15;57.63;102105.92;115644;1211;64034;-76
2021/04/16 00:34:53;;;;;;;3.47;1.03;;;;;;;4.13;57.62;102087.63;115491;1212;62602;-76
2021/04/16 00:37:20;;;;;;;2.55;1.00;;;;;;;4.12;57.74;102085.09;115482;1212;62243;-77
2021/04/16 00:39:46;;;;;;;2.07;1.00;;;;;;;4.12;57.07;102090.34;115494;1211;62229;-77
2021/04/16 00:42:13;;;;;;;2.85;1.40;;;;;;;4.11;57.45;102075.55;115658;1212;62363;-76
2021/04/16 00:44:40;;;;;;;2.40;1.30;;;;;;;4.08;57.20;102080.05;115554;1212;62320;-76
2021/04/16 00:47:14;;;;;;;3.07;1.00;;;;;;;4.07;57.41;102088.86;115737;1212;63075;-75
2021/04/16 00:49:47;;;;;;;1.80;0.80;;;;;;;4.06;57.60;102081.94;115550;1212;62454;-77
2021/04/16 00:52:21;;;;;;;1.70;1.10;;;;;;;4.05;57.36;102085.48;115524;1210;62594;-76
2021/04/16 00:54:48;;;;;;;1.57;0.83;;;;;;;4.03;57.71;102081.27;115537;1212;62268;-77
2021/04/16 00:57:15;;;;;;;1.30;0.60;;;;;;;4.03;57.32;102087.36;115506;1212;62292;-77
2021/04/16 00:59:47;;;;;;;2.15;0.80;;;;;;;4.02;57.61;102084.86;115541;1212;62505;-77
2021/04/16 01:02:14;;;;;;;1.97;1.10;;;;;;;4.02;57.46;102080.44;115479;1212;62708;-76
2021/04/16 01:04:41;;;;;;;1.75;0.90;;;;;;;4.02;57.95;102080.44;115544;1212;62251;-77
2021/04/16 01:07:09;;;;;;;3.90;1.10;;;;;;;4.02;57.69;102083.06;115757;1212;62659;-76
2021/04/16 01:09:36;;;;;;;4.73;1.10;;;;;;;4.03;57.09;102081.27;115488;1212;62322;-76
2021/04/16 01:12:09;;;;;;;1.00;0.70;;;;;;;4.03;57.26;102066.36;115530;1212;62460;-77
2021/04/16 01:14:39;;;;;;;2.00;0.97;;;;;;;4.05;56.82;102071.52;115768;1212;62274;-76
2021/04/16 01:17:07;;;;;;;2.70;1.10;;;;;;;4.06;56.92;102063.55;115558;1212;63058;-76
2021/04/16 01:19:43;;;;;;;2.37;1.00;;;;;;;4.06;56.83;102063.55;115653;1212;62297;-77
2021/04/16 01:22:50;;;;;;;3.13;1.20;;;;;;;4.07;56.82;102049.47;115772;1212;63471;-77
2021/04/16 01:25:19;;;;;;;2.80;1.10;;;;;;;4.07;56.92;102057.34;115811;1211;62630;-77
2021/04/16 01:27:45;;;;;;;3.00;1.20;;;;;;;4.06;57.35;102055.67;115549;1212;62253;-76
2021/04/16 01:30:21;;;;;;;2.50;0.80;;;;;;;4.06;57.35;102058.30;115496;1212;62652;-77
2021/04/16 01:32:47;;;;;;;1.90;0.87;;;;;;;4.06;57.26;102060.09;115657;1212;62249;-75
2021/04/16 01:35:19;;;;;;;1.90;1.00;;;;;;;4.06;57.64;102060.92;115491;1212;62188;-76
2021/04/16 01:37:46;;;;;;;2.57;1.53;;;;;;;4.05;57.29;102064.48;115522;1212;62489;-77
2021/04/16 01:40:13;;;;;;;2.30;1.20;;;;;;;4.07;57.92;102061.76;115505;1212;62476;-77
2021/04/16 01:42:41;;;;;;;2.80;1.40;;;;;;;4.05;57.61;102064.48;115533;1212;62906;-76
2021/04/16 01:45:16;;;;;;;2.63;1.20;;;;;;;4.05;58.20;102064.48;115464;1210;62258;-76
2021/04/16 01:47:43;;;;;;;2.17;1.00;;;;;;;4.04;58.64;102056.72;115531;1212;62970;-77
2021/04/16 01:50:10;;;;;;;3.63;1.40;;;;;;;3.99;58.68;102054.36;115485;1212;62609;-76
2021/04/16 01:52:37;;;;;;;3.25;1.30;;;;;;;3.99;59.12;102051.73;115569;1212;62282;-76
2021/04/16 01:55:05;;;;;;;1.40;0.80;;;;;;;3.97;58.89;102051.00;115520;1212;62988;-76
2021/04/16 01:57:35;;;;;;;2.27;1.10;;;;;;;3.97;59.66;102045.74;115547;1212;62626;-76
2021/04/16 02:00:12;;;;;;;2.50;1.30;;;;;;;3.95;59.02;102047.63;115524;1212;63459;-76
2021/04/16 02:02:39;;;;;;;2.45;1.30;;;;;;;3.96;59.37;102043.23;115497;1212;62568;-77
2021/04/16 02:05:07;;;;;;;3.30;1.50;;;;;;;3.97;59.44;102050.16;115685;1212;62549;-76
2021/04/16 02:07:33;;;;;;;2.60;1.25;;;;;;;3.97;59.85;102052.78;115540;1212;62471;-76
2021/04/16 02:10:00;;;;;;;2.90;1.20;;;;;;;3.97;59.91;102045.74;115530;1212;62274;-77
2021/04/16 02:12:27;;;;;;;2.90;1.40;;;;;;;3.95;60.14;102045.00;115486;1212;63862;-77
2021/04/16 02:14:55;;;;;;;3.97;1.50;;;;;;;3.95;59.87;102044.16;115490;1212;62625;-76
2021/04/16 02:17:27;;;;;;;3.33;1.73;;;;;;;3.95;60.05;102045.00;115659;1212;62322;-77
2021/04/16 02:19:56;;;;;;;2.45;1.35;;;;;;;3.95;59.90;102042.38;115464;1212;62360;-77
2021/04/16 02:22:25;;;;;;;1.85;0.90;;;;;;;3.94;59.78;102048.58;115556;1212;63638;-76
2021/04/16 02:24:52;;;;;;;3.30;0.90;;;;;;;3.93;59.71;102049.53;115529;1212;62360;-77
2021/04/16 02:27:22;;;;;;;3.70;1.73;;;;;;;3.92;60.12;102047.00;115489;1212;62351;-77
2021/04/16 02:29:49;;;;;;;2.13;1.20;;;;;;;3.92;60.33;102050.45;115508;1212;62476;-77
2021/04/16 02:32:17;;;;;;;3.30;1.20;;;;;;;3.93;59.56;102044.28;115521;1212;62273;-76
2021/04/16 02:34:44;;;;;;;2.10;1.33;;;;;;;3.93;60.38;102038.17;115515;1212;62360;-77
2021/04/16 02:37:17;;;;;;;1.80;1.10;;;;;;;3.94;60.23;102040.70;115522;1212;62892;-77
2021/04/16 02:39:44;;;;;;;4.70;2.10;;;;;;;3.94;60.35;102035.45;115487;1212;62410;-76
2021/04/16 02:42:11;;;;;;;3.05;1.45;;;;;;;3.92;59.76;102039.95;115537;1212;63257;-77
2021/04/16 02:44:38;;;;;;;2.60;0.95;;;;;;;3.91;59.79;102043.54;115518;1212;62154;-76
2021/04/16 02:47:06;;;;;;;2.10;1.10;;;;;;;3.88;60.04;102041.09;115693;1211;62404;-77
2021/04/16 02:49:34;;;;;;;1.90;1.00;;;;;;;3.88;60.52;102041.09;115760;1211;63418;-77
2021/04/16 02:52:01;;;;;;;3.00;1.00;;;;;;;3.86;60.81;102033.30;115466;1211;63269;-77
2021/04/16 02:54:28;;;;;;;1.50;0.90;;;;;;;3.85;61.22;102026.39;115515;1212;62220;-77
2021/04/16 02:56:55;;;;;;;2.80;1.25;;;;;;;3.83;60.57;102027.44;115504;1212;63171;-77
2021/04/16 02:59:23;;;;;;;2.63;1.07;;;;;;;3.81;60.82;102029.31;115504;1212;62931;-77
2021/04/16 03:01:51;;;;;;;2.70;1.20;;;;;;;3.80;61.40;102027.61;115540;1212;63205;-76
2021/04/16 03:04:18;;;;;;;2.00;0.90;;;;;;;3.76;61.69;102031.38;115626;1212;62808;-76
2021/04/16 03:06:44;;;;;;;1.50;1.05;;;;;;;3.75;61.62;102037.58;115477;1212;62581;-76
2021/04/16 03:09:11;;;;;;;2.17;0.90;;;;;;;3.72;61.47;102041.24;115716;1212;62200;-77
2021/04/16 03:11:37;;;;;;;2.13;1.00;;;;;;;3.69;61.23;102025.67;115520;1211;62956;-76
2021/04/16 03:14:04;;;;;;;2.20;1.00;;;;;;;3.70;61.84;102031.76;115489;1212;63830;-76
2021/04/16 03:16:32;;;;;;;1.90;0.80;;;;;;;3.68;61.90;102016.13;115489;1212;62220;-76
2021/04/16 03:19:01;;;;;;;2.23;1.03;;;;;;;3.66;61.98;102025.88;115433;1212;62457;-76
2021/04/16 03:21:28;;;;;;;2.45;1.35;;;;;;;3.64;61.79;102028.59;115475;1212;62151;-76
2021/04/16 03:23:56;;;;;;;2.15;1.10;;;;;;;3.60;61.83;102029.72;115662;1212;62507;-76
2021/04/16 03:26:25;;;;;;;2.70;1.10;;;;;;;3.58;61.97;102022.89;115517;1212;62947;-78
2021/04/16 03:28:57;;;;;;;2.30;1.20;;;;;;;3.56;61.42;102028.23;115550;1212;62569;-76
2021/04/16 03:31:25;;;;;;;3.30;1.30;;;;;;;3.54;61.68;102027.48;115378;1212;62220;-77
2021/04/16 03:33:53;;;;;;;1.90;0.80;;;;;;;3.50;61.65;102025.98;115584;1212;62132;-77
2021/04/16 03:36:20;;;;;;;5.70;1.30;;;;;;;3.49;61.65;102024.32;115538;1211;62952;-77
2021/04/16 03:38:47;;;;;;;1.60;0.90;;;;;;;3.46;61.87;102030.61;115659;1211;62666;-76
2021/04/16 03:41:15;;;;;;;2.00;0.93;;;;;;;3.45;61.71;102028.06;115531;1212;62405;-77
2021/04/16 03:43:42;;;;;;;1.90;0.95;;;;;;;3.43;61.74;102036.03;115659;1212;62545;-77
2021/04/16 03:46:10;;;;;;;1.60;0.90;;;;;;;3.42;61.85;102038.73;115537;1212;62372;-77
2021/04/16 03:48:37;;;;;;;2.90;0.70;;;;;;;3.40;61.76;102035.36;115517;1212;63529;-77
2021/04/16 03:51:04;;;;;;;2.10;0.70;;;;;;;3.40;62.28;102036.23;115543;1212;62461;-77
2021/04/16 03:53:31;;;;;;;2.13;0.93;;;;;;;3.38;62.28;102034.61;115482;1212;62392;-77
2021/04/16 03:55:58;;;;;;;1.85;1.00;;;;;;;3.39;62.09;102028.45;115530;1212;62343;-77
2021/04/16 03:58:25;;;;;;;1.85;0.90;;;;;;;3.38;62.22;102031.99;115409;1212;62460;-76
2021/04/16 04:00:51;;;;;;;1.50;1.00;;;;;;;3.36;62.95;102026.86;115543;1212;62491;-77
2021/04/16 04:03:21;;;;;;;1.67;1.03;;;;;;;3.37;62.32;102030.32;115507;1212;62416;-77
2021/04/16 04:05:48;;;;;;;1.80;0.90;;;;;;;3.35;62.98;102026.95;115420;1212;63009;-77
2021/04/16 04:08:14;;;;;;;1.65;1.00;;;;;;;3.34;62.98;102026.12;115517;1212;62545;-76
2021/04/16 04:10:41;;;;;;;2.30;1.10;;;;;;;3.34;62.74;102030.53;115359;1211;62510;-77
2021/04/16 04:13:11;;;;;;;1.90;0.80;;;;;;;3.32;62.89;102021.91;115560;1212;62576;-76
2021/04/16 04:15:40;;;;;;;5.05;1.85;;;;;;;3.30;63.57;102027.24;115406;1211;62431;-76
2021/04/16 04:18:25;;;;;;;1.07;0.60;;;;;;;3.29;63.33;102030.78;115534;1212;62958;-77
2021/04/16 04:20:52;;;;;;;7.10;1.05;;;;;;;3.26;63.48;102023.95;115568;1212;62389;-78
2021/04/16 04:23:18;;;;;;;3.60;1.75;;;;;;;3.25;63.23;102027.53;115516;1212;62207;-77
2021/04/16 04:25:45;;;;;;;2.63;1.03;;;;;;;3.26;63.50;102025.74;115461;1212;62406;-78
2021/04/16 04:28:11;;;;;;;1.90;1.10;;;;;;;3.24;63.60;102024.99;115665;1212;63021;-77
2021/04/16 04:30:39;;;;;;;3.83;2.00;;;;;;;3.25;63.33;102035.40;115520;1212;63333;-78
2021/04/16 04:33:07;;;;;;;2.00;1.00;;;;;;;3.23;63.52;102021.53;115734;1212;62314;-77
2021/04/16 04:35:34;;;;;;;3.50;1.20;;;;;;;3.24;63.74;102031.07;115546;1212;62259;-77
2021/04/16 04:38:01;;;;;;;2.67;1.47;;;;;;;3.24;63.67;102024.99;115479;1212;62285;-77
2021/04/16 04:40:28;;;;;;;3.30;1.10;;;;;;;3.23;63.66;102028.53;115666;1212;63128;-76
2021/04/16 04:42:55;;;;;;;2.65;1.40;;;;;;;3.22;63.86;102027.70;115518;1212;62861;-77
2021/04/16 04:45:23;;;;;;;3.45;1.55;;;;;;;3.23;63.97;102028.53;115535;1212;62328;-77
2021/04/16 04:47:50;;;;;;;4.60;1.35;;;;;;;3.23;64.35;102026.78;115509;1212;62432;-77
2021/04/16 04:50:17;;;;;;;2.93;1.10;;;;;;;3.24;64.36;102033.70;115556;1212;63400;-77
2021/04/16 04:52:45;;;;;;;3.80;1.30;;;;;;;3.26;63.72;102025.74;115526;1212;62409;-77
2021/04/16 04:55:14;;;;;;;3.75;1.60;;;;;;;3.29;64.21;102029.95;115658;1212;62236;-77
2021/04/16 04:57:41;;;;;;;2.43;1.10;;;;;;;3.31;64.26;102028.08;115706;1212;62154;-77
2021/04/16 05:00:11;;;;;;;2.60;1.00;;;;;;;3.34;64.15;102025.28;115545;1212;62675;-77
2021/04/16 05:02:38;;;;;;;2.60;1.30;;;;;;;3.38;63.55;102027.61;115560;1212;62297;-77
2021/04/16 05:05:06;;;;;;;2.07;1.07;;;;;;;3.41;64.20;102026.57;115555;1212;62447;-77
2021/04/16 05:07:33;;;;;;;1.90;1.30;;;;;;;3.44;63.94;102026.37;115485;1212;62296;-77
2021/04/16 05:09:59;;;;;;;2.27;1.23;;;;;;;3.49;63.74;102024.32;115494;1212;62725;-73
2021/04/16 05:12:26;;;;;;;2.40;1.30;;;;;;;3.55;64.21;102023.07;115694;1212;62488;-74
2021/04/16 05:14:52;;;;;;;3.27;1.50;;;;;;;3.59;64.04;102020.19;115709;1212;62179;-74
2021/04/16 05:17:19;;;;;;;3.65;1.00;;;;;;;3.62;63.62;102030.47;115525;1212;62861;-75
2021/04/16 05:19:46;;;;;;;3.05;0.90;;;;;;;3.65;64.89;102024.18;115488;1212;62851;-74
2021/04/16 05:22:13;;;;;;;1.30;0.80;;;;;;;3.67;63.65;102025.77;115501;1212;62413;-74
2021/04/16 05:24:40;;;;;;;1.20;0.60;;;;;;;3.72;63.58;102035.13;115624;1212;62844;-75
2021/04/16 05:27:10;;;;;;;3.63;1.10;;;;;;;3.76;63.65;102039.24;115451;1212;64393;-76
2021/04/16 05:29:37;;;;;;;4.17;0.90;;;;;;;3.80;63.71;102040.73;115557;1212;63625;-75
2021/04/16 05:32:04;;;;;;;7.50;1.80;;;;;;;3.84;63.18;102035.19;115699;1212;62829;-76
2021/04/16 05:34:32;;;;;;;1.80;1.05;;;;;;;3.92;63.15;102036.50;115686;1212;62395;-76
2021/04/16 05:37:00;;;;;;;1.65;0.85;;;;;;;3.99;63.15;102028.11;115538;1212;62392;-76
2021/04/16 05:39:26;;;;;;;1.20;0.70;;;;;;;4.06;62.90;102041.71;115568;1212;62362;-77
2021/04/16 05:41:54;;;;;;;1.70;0.90;;;;;;;4.12;62.84;102038.66;115522;1212;62398;-77
2021/04/16 05:44:20;;;;;;;4.80;1.10;;;;;;;4.17;62.65;102035.75;115668;1212;62719;-77
2021/04/16 05:46:48;;;;;;;4.05;1.10;;;;;;;4.25;62.19;102041.33;115649;1212;62214;-77
2021/04/16 05:49:14;;;;;;;6.85;1.70;;;;;;;4.35;63.06;102041.58;115546;1212;62335;-77
2021/04/16 05:51:41;;;;;;;6.80;1.30;;;;;;;4.42;61.87;102035.83;115503;1212;62373;-77
2021/04/16 05:54:08;;;;;;;3.90;1.20;;;;;;;4.47;62.31;102038.14;115492;1212;62355;-76
2021/04/16 05:56:34;;;;;;;3.10;1.50;;;;;;;4.52;62.19;102041.29;115506;1212;62413;-76
2021/04/16 05:59:01;;;;;;;5.53;1.47;;;;;;;4.59;61.58;102042.59;115422;1211;62829;-75
2021/04/16 06:01:27;;;;;;;4.80;1.13;;;;;;;4.61;61.50;102039.83;115504;1212;62294;-76
2021/04/16 06:03:55;;;;;;;2.97;1.10;;;;;;;4.62;60.83;102041.53;115485;1212;62120;-76
2021/04/16 06:06:21;;;;;;;2.50;1.10;;;;;;;4.64;61.52;102034.39;115622;1212;62454;-75
2021/04/16 06:08:48;;;;;;;3.10;1.30;;;;;;;4.68;61.49;102035.86;115533;1212;62440;-75
2021/04/16 06:11:14;;;;;;;1.80;0.85;;;;;;;4.71;61.61;102035.64;115477;1212;62269;-79
2021/04/16 06:13:41;;;;;;;3.83;1.30;;;;;;;4.74;61.21;102035.45;115454;1212;62765;-79
2021/04/16 06:16:10;;;;;;;2.70;1.20;;;;;;;4.79;61.06;102038.59;115561;1212;62153;-79
2021/04/16 06:19:12;;;;;;;1.70;1.10;;;;;;;4.84;61.51;102039.11;114874;1212;64262;-76
2021/04/16 06:21:38;;;;;;;3.40;1.10;;;;;;;4.93;61.10;102040.30;115467;1212;62360;-78
2021/04/16 06:24:05;;;;;;;3.23;1.17;;;;;;;4.98;60.92;102035.56;115548;1211;62533;-78
2021/04/16 06:26:37;;;;;;;5.20;1.40;;;;;;;5.03;60.67;102035.23;115395;1211;64480;-78
2021/04/16 06:29:06;;;;;;;1.80;1.00;;;;;;;5.03;60.72;102024.72;115517;1212;62313;-78
2021/04/16 06:31:32;;;;;;;2.23;1.03;;;;;;;5.09;60.88;102029.55;115471;1212;62993;-78
2021/04/16 06:33:59;;;;;;;3.33;1.10;;;;;;;5.13;60.25;102035.45;115579;1212;62268;-77
2021/04/16 06:36:25;;;;;;;2.15;1.10;;;;;;;5.16;60.40;102033.43;115561;1211;62409;-77
2021/04/16 06:38:53;;;;;;;3.70;1.40;;;;;;;5.23;60.73;102032.08;115758;1212;62188;-77
2021/04/16 06:41:24;;;;;;;3.30;1.60;;;;;;;5.34;60.76;102028.69;115423;1212;62268;-78
2021/04/16 06:44:15;;;;;;;3.00;1.27;;;;;;;5.46;60.40;102026.97;115552;1212;62997;-78
2021/04/16 06:46:46;;;;;;;3.85;1.20;;;;;;;5.58;60.05;102020.00;115508;1212;62292;-78
2021/04/16 06:49:23;;;;;;;2.03;1.27;;;;;;;5.63;59.75;102017.87;115599;1212;62222;-78
2021/04/16 06:52:14;;;;;;;2.53;0.93;;;;;;;5.71;59.45;102011.09;115562;1212;62437;-78
2021/04/16 06:54:52;;;;;;;3.05;0.95;;;;;;;5.75;58.37;102024.05;115554;1212;62379;-78
2021/04/16 06:57:25;;;;;;;2.63;1.00;;;;;;;5.79;58.51;102022.88;115826;1211;62985;-78
2021/04/16 07:00:01;;;;;;;2.80;1.10;;;;;;;5.88;57.77;102020.41;115575;1212;62520;-78
2021/04/16 07:02:39;;;;;;;2.65;1.20;;;;;;;5.88;57.48;102022.20;115582;1212;62444;-79
2021/04/16 07:05:20;;;;;;;4.80;1.20;;;;;;;5.80;57.07;102024.55;115604;1211;62212;-76
2021/04/16 07:07:49;;;;;;;2.13;0.97;;;;;;;5.73;57.48;102024.99;115579;1212;62427;-76
2021/04/16 07:10:29;;;;;;;2.30;0.90;;;;;;;5.71;58.06;102028.69;115657;1211;62308;-76
2021/04/16 07:12:59;;;;;;;2.63;1.00;;;;;;;5.77;58.18;102022.16;115531;1212;62498;-77
2021/04/16 07:15:41;;;;;;;1.95;1.00;;;;;;;5.88;57.38;102027.48;115584;1212;64141;-77
2021/04/16 07:18:13;;;;;;;2.37;1.00;;;;;;;6.05;57.27;102019.20;115625;1212;62528;-78
2021/04/16 07:20:41;;;;;;;2.87;1.17;;;;;;;6.28;57.76;102021.95;115580;1212;62524;-82
2021/04/16 07:23:08;;;;;;;2.05;1.05;;;;;;;6.50;56.39;102015.89;115603;1212;62321;-79
2021/04/16 07:25:39;;;;;;;1.87;0.90;;;;;;;6.65;53.99;102021.80;115540;1212;62481;-80
2021/04/16 07:28:13;;;;;;;2.60;1.10;;;;;;;6.79;51.39;102018.96;115595;1212;62456;-80
2021/04/16 07:30:50;;;;;;;2.60;1.10;;;;;;;7.03;52.85;102020.66;115632;1212;62380;-79
2021/04/16 07:33:42;;;;;;;2.70;1.30;;;;;;;7.17;49.93;102017.80;115568;1212;61750;-80
2021/04/16 07:36:39;;;;;;;2.95;1.30;;;;;;;7.31;49.95;102019.33;115602;1212;62639;-80
2021/04/16 07:39:16;;;;;;;3.37;1.27;;;;;;;7.39;49.74;102021.38;115634;1212;62345;-79
2021/04/16 07:41:53;;;;;;;3.40;0.90;;;;;;;7.52;49.63;102016.80;115603;1212;62125;-80
2021/04/16 07:44:33;;;;;;;1.87;1.27;;;;;;;7.68;48.15;102016.42;115571;1212;62572;-80
2021/04/16 07:47:11;;;;;;;1.90;0.90;;;;;;;7.76;47.01;102017.48;115082;1212;62561;-79
2021/04/16 07:49:53;;;;;;;1.13;0.60;;;;;;;7.86;48.28;102014.95;115491;1212;64709;-78
2021/04/16 07:52:31;;;;;;;3.97;1.17;;;;;;;7.93;47.32;102017.92;115594;1212;63528;-78
2021/04/16 07:55:29;;;;;;;3.23;0.90;;;;;;;8.04;46.37;102017.05;115602;1212;62450;-80
2021/04/16 07:58:19;;;;;;;1.37;0.70;;;;;;;8.09;45.67;102010.39;115626;1212;63533;-82
2021/04/16 08:00:48;;;;;;;1.30;0.80;;;;;;;8.24;45.57;102012.74;115799;1211;62351;-81
2021/04/16 08:03:21;;;;;;;2.30;0.70;;;;;;;8.33;44.23;102017.25;115594;1212;64176;-80
2021/04/16 08:05:53;;;;;;;4.50;1.05;;;;;;;8.36;42.80;102017.02;115598;1212;62357;-79
2021/04/16 08:08:26;;;;;;;2.77;0.70;;;;;;;8.43;43.29;102012.08;115598;1212;62367;-81
2021/04/16 08:11:01;;;;;;;2.43;0.80;;;;;;;8.52;43.17;102009.52;115603;1211;62594;-81
2021/04/16 08:13:35;;;;;;;2.10;0.80;;;;;;;8.62;42.29;102011.38;115832;1212;62258;-79
2021/04/16 08:16:11;;;;;;;1.60;0.50;;;;;;;8.71;43.14;102015.88;115637;1211;62214;-78
2021/04/16 08:18:40;;;;;;;1.90;0.90;;;;;;;8.75;42.93;102012.01;115706;1211;62219;-76
2021/04/16 08:21:20;;;;;;;1.10;0.50;;;;;;;8.67;42.21;102009.17;115820;1212;62301;-75
2021/04/16 08:23:53;;;;;;;2.53;0.87;;;;;;;8.74;42.26;102005.88;115470;1212;62337;-79
2021/04/16 08:26:23;;;;;;;1.73;0.87;;;;;;;8.88;42.86;102010.02;115522;1212;62443;-80
2021/04/16 08:29:03;;;;;;;2.13;0.60;;;;;;;8.97;40.68;102008.38;115645;1212;62927;-80
2021/04/16 08:31:36;;;;;;;0.90;0.60;;;;;;;9.08;40.71;102010.09;115595;1212;62566;-81
2021/04/16 08:34:13;;;;;;;1.17;0.40;;;;;;;9.06;39.56;102009.39;115882;1211;62439;-79
2021/04/16 08:36:43;;;;;;;2.05;0.75;;;;;;;9.19;40.17;102010.00;115621;1212;62339;-79
2021/04/16 08:39:40;;;;;;;2.60;0.83;;;;;;;9.25;40.55;102014.77;115774;1212;62195;-78
2021/04/16 08:42:13;;;;;;;2.93;1.07;;;;;;;9.34;40.58;102005.17;115804;1212;63824;-79
2021/04/16 08:44:54;;;;;;;2.40;0.40;;;;;;;9.41;40.18;102001.00;115534;1212;62388;-78
2021/04/16 08:47:31;;;;;;;2.00;0.80;;;;;;;9.55;40.51;102000.63;115543;1211;62616;-78
2021/04/16 08:49:58;;;;;;;2.35;0.50;;;;;;;9.72;40.69;102003.59;115593;1212;62562;-79
2021/04/16 08:52:31;;;;;;;3.00;0.80;;;;;;;9.84;39.84;102004.29;115576;1212;64131;-78
2021/04/16 08:55:30;;;;;;;0.95;0.40;;;;;;;9.85;37.71;102000.68;115587;1212;62964;-79
2021/04/16 08:58:26;;;;;;;1.50;0.60;;;;;;;9.89;39.33;102005.56;115797;1212;62587;-77
2021/04/16 09:01:09;;;;;;;2.05;1.00;;;;;;;10.08;40.80;102003.91;115518;1212;62254;-78
2021/04/16 09:03:52;;;;;;;3.20;0.80;;;;;;;10.28;40.45;102002.08;115803;1211;62410;-77
2021/04/16 09:06:23;;;;;;;1.27;0.80;;;;;;;10.39;39.47;102004.59;115575;1212;62365;-76
2021/04/16 09:08:50;;;;;;;2.35;0.70;;;;;;;10.39;38.84;101994.84;115611;1212;63648;-77
2021/04/16 09:11:44;;;;;;;5.70;1.10;;;;;;;10.42;40.20;101995.55;115576;1212;62551;-77
2021/04/16 09:14:23;;;;;;;2.40;0.90;;;;;;;10.53;39.85;101998.03;115798;1212;62441;-77
2021/04/16 09:17:04;;;;;;;3.20;1.10;;;;;;;10.58;40.04;101993.98;115573;1212;62321;-77
2021/04/16 09:19:31;;;;;;;2.00;1.00;;;;;;;10.61;40.04;102004.30;115571;1212;62219;-78
2021/04/16 09:22:08;;;;;;;1.65;0.90;;;;;;;10.49;39.36;102002.77;115546;1212;62381;-77
2021/04/16 09:24:55;;;;;;;1.70;1.00;;;;;;;10.46;39.22;102004.89;115425;1212;62971;-76
2021/04/16 09:27:31;;;;;;;4.03;1.37;;;;;;;10.47;39.94;102002.08;115800;1211;62143;-77
2021/04/16 09:30:05;;;;;;;2.13;1.23;;;;;;;10.42;38.72;102006.16;115559;1212;62368;-77
2021/04/16 09:32:32;;;;;;;2.10;0.80;;;;;;;10.30;38.88;101998.33;115559;1212;62216;-78
2021/04/16 09:35:02;;;;;;;1.40;0.80;;;;;;;10.28;39.33;102000.25;115563;1212;62723;-80
2021/04/16 09:37:33;;;;;;;1.90;0.70;;;;;;;10.25;37.98;102005.02;115632;1211;62250;-81
2021/04/16 09:40:25;;;;;;;2.00;0.95;;;;;;;10.30;39.16;102008.94;115605;1212;62618;-80
2021/04/16 09:43:10;;;;;;;1.50;0.60;;;;;;;10.61;38.77;101991.02;115616;1212;61763;-80
2021/04/16 09:45:40;;;;;;;1.55;0.55;;;;;;;10.83;37.09;101998.80;115577;1212;62556;-83
2021/04/16 09:48:09;;;;;;;4.07;1.43;;;;;;;10.61;36.07;101959.18;115645;1212;62681;-79
2021/04/16 09:50:49;;;;;;;1.70;0.97;;;;;;;11.00;35.92;102004.17;115663;1212;62639;-78
2021/04/16 09:53:33;;;;;;;1.03;0.53;;;;;;;11.02;36.73;101994.23;115809;1212;62158;-79
2021/04/16 09:56:01;;;;;;;3.55;0.75;;;;;;;11.10;36.95;101990.03;115561;1212;62223;-80
2021/04/16 09:58:31;;;;;;;2.33;0.70;;;;;;;11.16;35.74;102002.73;115842;1211;62285;-81
2021/04/16 10:00:58;;;;;;;1.75;0.70;;;;;;;11.20;35.35;101993.48;115837;1211;62845;-80
2021/04/16 10:03:43;;;;;;;1.63;0.87;;;;;;;11.27;36.69;101994.56;115572;1212;62359;-80
2021/04/16 10:06:29;;;;;;;1.83;0.80;;;;;;;11.41;36.42;101994.08;115868;1212;62328;-80
2021/04/16 10:09:14;;;;;;;;;;;;;;;11.55;36.71;101987.41;115591;1219;62489;-80
2021/04/16 10:11:58;;;;;;;3.70;1.10;;;;;;;11.63;36.30;101984.01;115785;1212;61813;-79
2021/04/16 10:14:25;;;;;;;1.90;0.90;;;;;;;11.83;36.44;101974.89;115590;1212;63250;-79
2021/04/16 10:17:01;;;;;;;1.67;0.93;;;;;;;12.04;37.37;101981.77;115587;1212;62355;-79
2021/04/16 10:19:40;;;;;;;1.35;0.50;;;;;;;12.12;35.39;101979.18;115607;1212;62544;-80
2021/04/16 10:22:17;;;;;;;2.05;0.75;;;;;;;12.09;35.63;101984.81;115608;1212;62356;-80
2021/04/16 11:02:59;;;;;;;1.70;0.80;;;;;;;12.01;32.36;101939.53;115901;1211;61712;-81
2021/04/16 12:39:44;;;;;;;2.67;0.60;;;;;;;19.31;21.97;101875.38;115687;1212;61809;-77
2021/04/16 12:42:11;;;;;;;1.63;0.83;;;;;;;19.84;21.36;101872.75;115590;1212;62435;-76
2021/04/16 12:44:51;;;;;;;1.70;1.00;;;;;;;20.03;20.53;101864.88;115710;1212;62284;-76
2021/04/16 12:47:30;;;;;;;4.13;0.80;;;;;;;20.53;21.21;101867.88;115609;1212;63010;-77
2021/04/16 12:49:59;;;;;;;5.10;0.90;;;;;;;21.04;20.23;101861.66;115760;1212;62254;-77
2021/04/16 12:52:27;;;;;;;1.90;1.10;;;;;;;21.14;19.62;101861.99;115632;1212;62387;-75
2021/04/16 12:54:53;;;;;;;2.70;1.03;;;;;;;21.87;19.16;101865.25;115608;1211;62641;-75
2021/04/16 12:57:41;;;;;;;3.30;0.93;;;;;;;22.75;18.62;101862.21;115648;1212;62204;-80
2021/04/16 13:00:19;;;;;;;2.10;1.00;;;;;;;23.47;18.75;101868.73;115878;1212;63033;-79
2021/04/16 13:02:46;;;;;;;1.50;0.80;;;;;;;23.31;17.75;101862.09;115844;1211;62374;-80
2021/04/16 13:05:15;;;;;;;1.93;1.10;;;;;;;23.31;17.15;101859.39;115668;1211;62481;-79
2021/04/16 13:07:43;;;;;;;1.60;0.80;;;;;;;23.43;17.50;101862.14;115617;1212;62329;-79
2021/04/16 13:10:15;;;;;;;3.37;1.43;;;;;;;24.05;16.59;101864.45;115850;1212;62270;-80
2021/04/16 13:12:41;;;;;;;2.23;0.93;;;;;;;24.67;17.21;101856.56;115640;1212;62525;-80
2021/04/16 13:15:09;;;;;;;2.00;0.80;;;;;;;25.39;16.53;101856.00;115655;1212;62418;-78
2021/04/16 13:17:41;;;;;;;1.73;0.93;;;;;;;26.17;16.37;101858.03;115876;1211;62294;-77
2021/04/16 13:20:14;;;;;;;1.57;0.83;;;;;;;25.86;14.52;101852.12;115827;1212;62476;-77
2021/04/16 13:22:42;;;;;;;3.47;1.60;;;;;;;25.42;16.06;101857.43;115823;1211;62134;-78
2021/04/16 13:25:11;;;;;;;1.53;0.70;;;;;;;24.87;16.22;101844.48;115600;1212;63102;-80
2021/04/16 13:27:38;;;;;;;2.73;0.93;;;;;;;24.71;17.15;101848.77;115464;1212;62363;-78
2021/04/16 13:30:07;;;;;;;1.80;0.85;;;;;;;25.35;16.31;101851.31;115550;1212;62435;-77
2021/04/16 13:32:43;;;;;;;3.90;0.90;;;;;;;25.86;16.58;101841.24;115722;1212;62593;-79
2021/04/16 13:35:16;;;;;;;1.60;0.70;;;;;;;25.68;14.42;101842.34;115631;1212;62344;-78
2021/04/16 13:37:44;;;;;;;1.70;0.80;;;;;;;25.66;14.51;101840.95;115560;1212;62152;-78
2021/04/16 13:40:11;;;;;;;1.50;0.80;;;;;;;25.33;14.90;101834.44;115564;1212;63297;-78
2021/04/16 13:42:37;;;;;;;2.00;0.70;;;;;;;25.06;15.63;101837.77;115581;1212;62428;-79
2021/04/16 13:45:05;;;;;;;1.70;0.77;;;;;;;25.20;15.84;101841.86;115799;1212;62373;-76
2021/04/16 13:47:36;;;;;;;2.43;0.83;;;;;;;25.23;15.44;101833.21;115544;1212;62652;-78
2021/04/16 13:50:04;;;;;;;1.53;0.60;;;;;;;25.73;15.38;101836.16;115807;1212;62269;-78
2021/04/16 13:52:31;;;;;;;0.87;0.57;;;;;;;26.39;14.51;101838.99;115540;1211;62536;-78
2021/04/16 13:54:58;;;;;;;2.90;0.70;;;;;;;26.71;14.47;101830.14;115754;1212;62380;-77